Time,TemperatureF,DewpointF,PressureIn,WindDirection,WindDirectionDegrees,WindSpeedMPH,WindSpeedGustMPH,Humidity,HourlyPrecipIn,Conditions,Clouds,dailyrainin,SoftwareType,DateUTC
2013-02-05 00:00:00,34.4,32.0,29.96,West,265,2.0,3.0,92,0.00,,,0.00,weatherlink.com 1.10,2013-02-05 08:00:00,
2013-02-05 00:15:00,34.3,32.0,29.96,West,265,2.0,4.0,91,0.00,,,0.00,weatherlink.com 1.10,2013-02-05 08:15:00,
2013-02-05 00:30:00,33.3,32.0,29.96,West,265,2.0,4.0,94,0.00,,,0.00,weatherlink.com 1.10,2013-02-05 08:30:00,
2013-02-05 00:45:00,33.7,32.0,29.96,West,265,1.0,3.0,94,0.00,,,0.00,weatherlink.com 1.10,2013-02-05 08:45:00,
2013-02-05 01:00:00,33.0,32.0,29.95,West,265,2.0,4.0,94,0.00,,,0.00,weatherlink.com 1.10,2013-02-05 09:00:00,
2013-02-05 01:15:00,34.4,32.0,29.95,West,265,1.0,6.0,92,0.00,,,0.00,weatherlink.com 1.10,2013-02-05 09:15:00,
2013-02-05 01:30:00,32.6,31.0,29.95,West,265,2.0,4.0,94,0.00,,,0.00,weatherlink.com 1.10,2013-02-05 09:30:00,
2013-02-05 01:45:00,31.9,30.0,29.95,West,265,1.0,3.0,94,0.00,,,0.00,weatherlink.com 1.10,2013-02-05 09:45:00,
2013-02-05 02:01:00,30.9,29.0,29.96,West,265,1.0,4.0,94,0.00,,,0.00,weatherlink.com 1.10,2013-02-05 10:01:00,
2013-02-05 02:16:00,31.0,30.0,29.97,West,265,4.0,5.0,96,0.00,,,0.00,weatherlink.com 1.10,2013-02-05 10:16:00,
2013-02-05 02:32:00,30.9,30.0,29.97,West,265,0.0,3.0,96,0.00,,,0.00,weatherlink.com 1.10,2013-02-05 10:32:00,
2013-02-05 02:45:00,31.4,30.0,29.97,West,265,2.0,6.0,96,0.00,,,0.00,weatherlink.com 1.10,2013-02-05 10:45:00,
2013-02-05 03:00:00,32.0,31.0,29.96,West,265,2.0,6.0,95,0.00,,,0.00,weatherlink.com 1.10,2013-02-05 11:00:00,
2013-02-05 03:30:00,33.0,32.0,29.96,West,265,4.0,6.0,94,0.00,,,0.00,weatherlink.com 1.10,2013-02-05 11:30:00,
2013-02-05 03:45:00,34.6,33.0,29.96,West,271,3.0,10.0,92,0.00,,,0.00,weatherlink.com 1.10,2013-02-05 11:45:00,
2013-02-05 04:02:00,34.2,32.0,29.95,WNW,288,2.0,6.0,92,0.00,,,0.00,weatherlink.com 1.10,2013-02-05 12:02:00,
2013-02-05 04:17:00,34.4,33.0,29.95,North,355,0.0,8.0,93,0.00,,,0.00,weatherlink.com 1.10,2013-02-05 12:17:00,
2013-02-05 04:31:00,35.6,33.0,29.94,North,355,0.0,3.0,91,0.00,,,0.00,weatherlink.com 1.10,2013-02-05 12:31:00,
2013-02-05 04:46:00,35.9,33.0,29.94,NNW,343,1.0,7.0,90,0.00,,,0.00,weatherlink.com 1.10,2013-02-05 12:46:00,
2013-02-05 05:01:00,35.3,33.0,29.94,NNW,343,0.0,1.0,91,0.00,,,0.00,weatherlink.com 1.10,2013-02-05 13:01:00,
2013-02-05 05:16:00,35.6,34.0,29.93,NNW,343,3.0,3.0,92,0.00,,,0.00,weatherlink.com 1.10,2013-02-05 13:16:00,
2013-02-05 05:31:00,36.2,34.0,29.93,NW,325,0.0,2.0,91,0.00,,,0.00,weatherlink.com 1.10,2013-02-05 13:31:00,
2013-02-05 05:46:00,37.4,35.0,29.93,NW,325,2.0,5.0,90,0.00,,,0.00,weatherlink.com 1.10,2013-02-05 13:46:00,
2013-02-05 06:03:00,39.7,36.0,29.92,WSW,238,8.0,12.0,86,0.00,,,0.00,weatherlink.com 1.10,2013-02-05 14:03:00,
2013-02-05 06:16:00,39.5,36.0,29.92,SW,223,0.0,9.0,86,0.00,,,0.00,weatherlink.com 1.10,2013-02-05 14:16:00,
2013-02-05 06:31:00,38.8,35.0,29.93,SW,232,0.0,4.0,87,0.00,,,0.00,weatherlink.com 1.10,2013-02-05 14:31:00,
2013-02-05 06:46:00,37.8,35.0,29.93,SW,232,0.0,0.0,89,0.00,,,0.00,weatherlink.com 1.10,2013-02-05 14:46:00,
2013-02-05 07:01:00,36.8,35.0,29.92,SW,232,1.0,2.0,91,0.00,,,0.00,weatherlink.com 1.10,2013-02-05 15:01:00,
2013-02-05 07:16:00,35.6,34.0,29.93,SW,232,1.0,3.0,93,0.01,,,0.01,weatherlink.com 1.10,2013-02-05 15:16:00,
2013-02-05 07:31:00,35.5,34.0,29.93,SW,232,0.0,4.0,94,0.01,,,0.01,weatherlink.com 1.10,2013-02-05 15:31:00,
2013-02-05 07:46:00,35.4,34.0,29.94,SW,232,2.0,4.0,95,0.01,,,0.01,weatherlink.com 1.10,2013-02-05 15:46:00,
2013-02-05 08:01:00,35.6,35.0,29.94,SW,232,0.0,2.0,96,0.02,,,0.02,weatherlink.com 1.10,2013-02-05 16:01:00,
2013-02-05 08:16:00,35.7,35.0,29.94,SW,232,0.0,0.0,96,0.01,,,0.02,weatherlink.com 1.10,2013-02-05 16:16:00,
2013-02-05 08:31:00,35.6,35.0,29.93,SW,232,0.0,0.0,96,0.02,,,0.03,weatherlink.com 1.10,2013-02-05 16:31:00,
2013-02-05 08:46:00,35.3,34.0,29.94,SW,232,4.0,4.0,96,0.02,,,0.03,weatherlink.com 1.10,2013-02-05 16:46:00,
2013-02-05 09:01:00,35.1,34.0,29.94,SW,232,0.0,1.0,96,0.01,,,0.03,weatherlink.com 1.10,2013-02-05 17:01:00,
2013-02-05 09:16:00,35.6,35.0,29.94,SW,232,0.0,0.0,97,0.01,,,0.03,weatherlink.com 1.10,2013-02-05 17:16:00,
2013-02-05 09:31:00,36.0,35.0,29.95,SW,232,0.0,2.0,97,0.00,,,0.03,weatherlink.com 1.10,2013-02-05 17:31:00,
2013-02-05 09:46:00,36.1,35.0,29.95,SW,232,0.0,2.0,97,0.00,,,0.03,weatherlink.com 1.10,2013-02-05 17:46:00,
2013-02-05 10:01:00,36.1,35.0,29.95,SW,232,0.0,2.0,97,0.00,,,0.03,weatherlink.com 1.10,2013-02-05 18:01:00,
2013-02-05 10:16:00,37.1,36.0,29.94,SW,232,0.0,1.0,97,0.01,,,0.04,weatherlink.com 1.10,2013-02-05 18:16:00,
2013-02-05 10:31:00,37.2,36.0,29.94,SW,232,0.0,2.0,96,0.01,,,0.04,weatherlink.com 1.10,2013-02-05 18:31:00,
2013-02-05 10:48:00,37.3,36.0,29.94,SW,232,0.0,2.0,96,0.01,,,0.04,weatherlink.com 1.10,2013-02-05 18:48:00,
2013-02-05 11:01:00,37.7,37.0,29.94,SW,232,2.0,2.0,96,0.01,,,0.04,weatherlink.com 1.10,2013-02-05 19:01:00,
2013-02-05 11:17:00,37.9,37.0,29.94,SW,232,1.0,2.0,96,0.00,,,0.04,weatherlink.com 1.10,2013-02-05 19:17:00,
2013-02-05 11:31:00,38.8,38.0,29.94,SW,232,0.0,0.0,96,0.01,,,0.05,weatherlink.com 1.10,2013-02-05 19:31:00,
2013-02-05 11:46:00,39.8,39.0,29.94,SW,232,2.0,2.0,95,0.01,,,0.05,weatherlink.com 1.10,2013-02-05 19:46:00,
2013-02-05 12:02:00,39.4,38.0,29.94,SE,125,1.0,7.0,95,0.01,,,0.05,weatherlink.com 1.10,2013-02-05 20:02:00,
2013-02-05 12:16:00,39.5,38.0,29.93,SE,125,0.0,7.0,94,0.01,,,0.05,weatherlink.com 1.10,2013-02-05 20:16:00,
2013-02-05 12:32:00,41.6,39.0,29.93,SE,125,1.0,3.0,89,0.00,,,0.05,weatherlink.com 1.10,2013-02-05 20:32:00,
2013-02-05 12:47:00,41.8,38.0,29.93,SE,125,0.0,3.0,87,0.00,,,0.05,weatherlink.com 1.10,2013-02-05 20:47:00,
2013-02-05 13:02:00,41.9,39.0,29.93,SE,125,2.0,5.0,88,0.00,,,0.05,weatherlink.com 1.10,2013-02-05 21:02:00,
2013-02-05 13:17:00,41.6,39.0,29.93,SE,125,0.0,4.0,89,0.01,,,0.06,weatherlink.com 1.10,2013-02-05 21:17:00,
2013-02-05 13:32:00,41.9,39.0,29.92,SE,125,2.0,3.0,90,0.01,,,0.06,weatherlink.com 1.10,2013-02-05 21:32:00,
2013-02-05 13:47:00,41.4,38.0,29.92,SE,125,0.0,3.0,89,0.01,,,0.06,weatherlink.com 1.10,2013-02-05 21:47:00,
2013-02-05 14:02:00,40.6,37.0,29.92,SSW,210,3.0,7.0,87,0.01,,,0.06,weatherlink.com 1.10,2013-02-05 22:02:00,
2013-02-05 14:18:00,40.7,38.0,29.92,SSW,210,1.0,7.0,89,0.00,,,0.06,weatherlink.com 1.10,2013-02-05 22:18:00,
2013-02-05 14:32:00,41.3,38.0,29.92,SSW,210,3.0,6.0,89,0.01,,,0.07,weatherlink.com 1.10,2013-02-05 22:32:00,
2013-02-05 14:48:00,41.2,38.0,29.92,SSW,210,5.0,5.0,88,0.01,,,0.07,weatherlink.com 1.10,2013-02-05 22:48:00,
2013-02-05 15:02:00,40.8,37.0,29.93,SSW,210,6.0,7.0,87,0.01,,,0.07,weatherlink.com 1.10,2013-02-05 23:02:00,
2013-02-05 15:17:00,41.0,37.0,29.93,SW,226,3.0,8.0,86,0.01,,,0.07,weatherlink.com 1.10,2013-02-05 23:17:00,
2013-02-05 15:34:00,40.8,38.0,29.93,SW,226,0.0,1.0,88,0.00,,,0.07,weatherlink.com 1.10,2013-02-05 23:34:00,
2013-02-05 15:48:00,40.5,38.0,29.93,SW,226,2.0,2.0,90,0.00,,,0.07,weatherlink.com 1.10,2013-02-05 23:48:00,
2013-02-05 16:03:00,40.0,37.0,29.94,SW,222,7.0,14.0,88,0.00,,,0.07,weatherlink.com 1.10,2013-02-06 00:03:00,
2013-02-05 16:18:00,38.7,36.0,29.94,WSW,240,6.0,9.0,90,0.02,,,0.09,weatherlink.com 1.10,2013-02-06 00:18:00,
2013-02-05 16:33:00,38.5,36.0,29.94,WSW,252,0.0,5.0,92,0.02,,,0.09,weatherlink.com 1.10,2013-02-06 00:33:00,
2013-02-05 16:48:00,38.2,36.0,29.94,WSW,252,0.0,2.0,93,0.02,,,0.09,weatherlink.com 1.10,2013-02-06 00:48:00,
2013-02-05 17:03:00,37.8,36.0,29.93,WSW,252,0.0,4.0,93,0.02,,,0.09,weatherlink.com 1.10,2013-02-06 01:03:00,
2013-02-05 17:18:00,37.4,36.0,29.94,WSW,252,0.0,1.0,95,0.00,,,0.09,weatherlink.com 1.10,2013-02-06 01:18:00,
2013-02-05 17:33:00,36.9,36.0,29.94,WSW,252,0.0,2.0,95,0.00,,,0.09,weatherlink.com 1.10,2013-02-06 01:33:00,
2013-02-05 17:48:00,36.9,36.0,29.94,WSW,252,0.0,0.0,96,0.00,,,0.09,weatherlink.com 1.10,2013-02-06 01:48:00,
2013-02-05 18:04:00,36.4,35.0,29.94,WSW,252,0.0,0.0,96,0.00,,,0.09,weatherlink.com 1.10,2013-02-06 02:04:00,
2013-02-05 18:18:00,36.2,35.0,29.94,WSW,252,2.0,2.0,96,0.00,,,0.09,weatherlink.com 1.10,2013-02-06 02:18:00,
2013-02-05 18:33:00,36.2,35.0,29.94,WSW,252,1.0,1.0,96,0.00,,,0.09,weatherlink.com 1.10,2013-02-06 02:33:00,
2013-02-05 18:48:00,36.0,35.0,29.95,WSW,252,1.0,2.0,96,0.02,,,0.11,weatherlink.com 1.10,2013-02-06 02:48:00,
2013-02-05 19:03:00,36.4,36.0,29.95,WSW,252,0.0,2.0,97,0.02,,,0.11,weatherlink.com 1.10,2013-02-06 03:03:00,
2013-02-05 19:18:00,36.3,36.0,29.96,WSW,252,3.0,3.0,97,0.02,,,0.11,weatherlink.com 1.10,2013-02-06 03:18:00,
2013-02-05 19:33:00,35.4,34.0,29.96,WSW,252,0.0,3.0,96,0.01,,,0.11,weatherlink.com 1.10,2013-02-06 03:33:00,
2013-02-05 19:49:00,35.3,35.0,29.96,WSW,252,2.0,2.0,97,0.00,,,0.11,weatherlink.com 1.10,2013-02-06 03:49:00,
2013-02-05 20:04:00,35.4,35.0,29.97,WSW,252,3.0,4.0,97,0.00,,,0.11,weatherlink.com 1.10,2013-02-06 04:04:00,
2013-02-05 20:19:00,35.2,35.0,29.96,WSW,252,2.0,4.0,97,0.00,,,0.11,weatherlink.com 1.10,2013-02-06 04:19:00,
2013-02-05 20:34:00,35.2,35.0,29.97,WSW,252,0.0,2.0,97,0.00,,,0.11,weatherlink.com 1.10,2013-02-06 04:34:00,
2013-02-05 20:49:00,35.5,35.0,29.97,WSW,252,1.0,3.0,97,0.01,,,0.12,weatherlink.com 1.10,2013-02-06 04:49:00,
2013-02-05 21:04:00,35.0,34.0,29.97,WSW,252,1.0,2.0,97,0.01,,,0.12,weatherlink.com 1.10,2013-02-06 05:04:00,
2013-02-05 21:19:00,34.8,34.0,29.98,WSW,252,0.0,2.0,97,0.02,,,0.13,weatherlink.com 1.10,2013-02-06 05:19:00,
2013-02-05 21:34:00,34.6,34.0,29.99,WSW,252,0.0,1.0,97,0.02,,,0.13,weatherlink.com 1.10,2013-02-06 05:34:00,
2013-02-05 21:49:00,34.5,34.0,29.99,WSW,252,0.0,1.0,97,0.01,,,0.13,weatherlink.com 1.10,2013-02-06 05:49:00,
2013-02-05 22:04:00,34.7,34.0,29.99,WSW,252,4.0,5.0,97,0.01,,,0.13,weatherlink.com 1.10,2013-02-06 06:04:00,
2013-02-05 22:19:00,34.2,34.0,29.99,WSW,252,2.0,3.0,97,0.00,,,0.13,weatherlink.com 1.10,2013-02-06 06:19:00,
2013-02-05 22:34:00,34.2,34.0,29.99,WSW,252,0.0,2.0,97,0.00,,,0.13,weatherlink.com 1.10,2013-02-06 06:34:00,
2013-02-05 22:49:00,34.3,34.0,30.00,WSW,252,0.0,2.0,97,0.00,,,0.13,weatherlink.com 1.10,2013-02-06 06:49:00,
2013-02-05 23:04:00,34.2,34.0,30.00,WSW,252,0.0,0.0,97,0.01,,,0.14,weatherlink.com 1.10,2013-02-06 07:04:00,
2013-02-05 23:19:00,34.3,34.0,30.01,WSW,252,0.0,2.0,98,0.01,,,0.14,weatherlink.com 1.10,2013-02-06 07:19:00,
2013-02-05 23:34:00,34.6,34.0,30.01,WSW,252,0.0,1.0,97,0.01,,,0.14,weatherlink.com 1.10,2013-02-06 07:34:00,
2013-02-05 23:49:00,34.5,34.0,30.01,WSW,252,0.0,1.0,97,0.01,,,0.14,weatherlink.com 1.10,2013-02-06 07:49:00,